Terminal Aerodrome Forecast
Issued by NWS

Home | Current Version | Previous Version | Text Only | Print | Product List | Glossary On
Versions: 1 2 3 4 5 6 7 8 9 10 11 12 13 14 15 16 17 18 19 20
000
FTUS43 KGRR 210900 AAB
TAFBTL
TAF AMD
KBTL 210936Z 2110/2206 26013KT P6SM SCT021
     FM211100 27012KT P6SM BKN015
     FM211700 32012G24KT P6SM VCSH OVC025
     FM212200 33010KT P6SM FEW100=

USA.gov is the U.S. government's official web portal to all federal, state and local government web resources and services.